createdAt,value
2023-02-03T00:01:40.973Z,101553.50
2023-02-03T00:06:44.240Z,101540.38
2023-02-03T00:11:48.167Z,101528.78
2023-02-03T00:16:50.907Z,101518.81
2023-02-03T00:21:53.392Z,101498.34
2023-02-03T00:26:57.187Z,101494.38
2023-02-03T00:31:59.820Z,101469.47
2023-02-03T00:37:02.904Z,101470.56
2023-02-03T00:42:07.612Z,101476.03
2023-02-03T00:47:10.200Z,101450.06
2023-02-03T00:52:12.720Z,101424.88
2023-02-03T00:57:16.552Z,101414.47
2023-02-03T01:02:19.139Z,101401.50
2023-02-03T01:07:21.629Z,101382.69
2023-02-03T01:12:25.409Z,101375.53
2023-02-03T01:17:27.942Z,101357.06
2023-02-03T01:22:31.176Z,101349.75
2023-02-03T01:27:35.052Z,101350.38
2023-02-03T01:32:37.523Z,101334.94
2023-02-03T01:37:40.013Z,101314.34
2023-02-03T01:42:43.854Z,101286.53
2023-02-03T01:47:51.192Z,101257.84
2023-02-03T01:52:58.475Z,101242.28
2023-02-03T01:58:07.613Z,101219.03
2023-02-03T02:03:10.842Z,101199.19
2023-02-03T02:08:14.904Z,101206.34
2023-02-03T02:13:20.496Z,101190.00
2023-02-03T02:18:37.571Z,101183.13
2023-02-03T02:24:08.978Z,101167.41
2023-02-03T02:29:51.048Z,101141.56
2023-02-03T02:35:02.794Z,101121.84
2023-02-03T02:40:16.754Z,101104.88
2023-02-03T02:45:26.363Z,101103.44
2023-02-03T02:50:35.701Z,101078.56
2023-02-03T02:55:41.186Z,101057.41
2023-02-03T03:00:44.859Z,101064.84
2023-02-03T03:05:53.413Z,101047.69
2023-02-03T03:10:57.967Z,101029.03
2023-02-03T03:16:02.546Z,101025.00
2023-02-03T03:21:09.035Z,101020.50
2023-02-03T03:26:17.399Z,101007.00
2023-02-03T03:31:20.989Z,100984.53
2023-02-03T03:36:30.198Z,100958.16
2023-02-03T03:41:42.284Z,100938.81
2023-02-03T03:46:51.139Z,100935.47
2023-02-03T03:51:59.894Z,100921.00
2023-02-03T03:57:07.695Z,100914.13
2023-02-03T04:02:10.940Z,100896.00
2023-02-03T04:07:15.616Z,100884.28
2023-02-03T04:12:24.339Z,100886.69
2023-02-03T04:17:26.864Z,100869.28
2023-02-03T04:22:30.666Z,100862.94
2023-02-03T04:27:33.514Z,100859.97
2023-02-03T04:32:36.419Z,100852.47
2023-02-03T04:37:40.319Z,100837.63
2023-02-03T04:42:42.885Z,100821.25
2023-02-03T04:47:45.379Z,100813.47
2023-02-03T04:52:49.217Z,100803.22
2023-02-03T04:57:56.316Z,100791.06
2023-02-03T05:02:58.837Z,100772.16
2023-02-03T05:08:02.749Z,100757.16
2023-02-03T05:13:05.249Z,100738.78
2023-02-03T05:18:08.016Z,100734.44
2023-02-03T05:23:11.825Z,100733.41
2023-02-03T05:28:14.457Z,100716.47
2023-02-03T05:33:17.405Z,100706.56
2023-02-03T05:38:21.320Z,100696.66
2023-02-03T05:43:23.833Z,100693.56
2023-02-03T05:48:26.333Z,100694.13
2023-02-03T05:53:30.271Z,100678.84
2023-02-03T05:58:32.833Z,100667.25
2023-02-03T06:03:35.397Z,100654.69
2023-02-03T06:08:39.318Z,100641.94
2023-02-03T06:13:41.802Z,100631.78
2023-02-03T06:18:44.285Z,100628.56
2023-02-03T06:23:48.297Z,100607.88
2023-02-03T06:28:50.814Z,100616.63
2023-02-03T06:33:53.357Z,100608.41
2023-02-03T06:38:58.288Z,100593.41
2023-02-03T06:44:00.789Z,100576.00
2023-02-03T06:49:03.282Z,100573.69
2023-02-03T06:54:07.957Z,100553.72
2023-02-03T06:59:10.966Z,100553.13
2023-02-03T07:04:13.452Z,100557.00
2023-02-03T07:09:17.325Z,100542.44
2023-02-03T07:14:20.018Z,100536.50
2023-02-03T07:19:22.549Z,100526.06
2023-02-03T07:24:26.399Z,100512.34
2023-02-03T07:29:29.236Z,100508.22
2023-02-03T07:34:31.761Z,100492.75
2023-02-03T07:39:35.668Z,100492.13
2023-02-03T07:44:38.197Z,100489.78
2023-02-03T07:49:40.730Z,100468.16
2023-02-03T07:54:44.583Z,100474.56
2023-02-03T07:59:47.076Z,100472.97
2023-02-03T08:04:49.665Z,100460.44
2023-02-03T08:09:53.529Z,100454.31
2023-02-03T08:14:56.103Z,100474.00
2023-02-03T08:19:58.581Z,100468.75
2023-02-03T08:25:02.424Z,100476.06
2023-02-03T08:30:06.193Z,100484.56
2023-02-03T08:35:09.714Z,100464.63
2023-02-03T08:40:14.047Z,100477.75
2023-02-03T08:45:16.539Z,100483.72
2023-02-03T08:50:19.736Z,100487.25
2023-02-03T08:55:24.544Z,100479.31
2023-02-03T09:00:28.004Z,100485.34
2023-02-03T09:05:31.304Z,100494.81
2023-02-03T09:10:35.131Z,100508.44
2023-02-03T09:15:38.065Z,100523.34
2023-02-03T09:20:40.581Z,100532.09
2023-02-03T09:25:47.237Z,100517.41
2023-02-03T09:30:51.110Z,100516.56
2023-02-03T09:35:53.969Z,100526.06
2023-02-03T09:41:11.305Z,100543.16
2023-02-03T09:46:20.999Z,100540.28
2023-02-03T09:51:26.112Z,100549.88
2023-02-03T09:56:33.297Z,100556.00
2023-02-03T10:01:42.660Z,100541.28
2023-02-03T10:06:47.277Z,100547.41
2023-02-03T10:12:09.511Z,100554.38
2023-02-03T10:17:30.325Z,100561.97
2023-02-03T10:22:38.896Z,100576.25
2023-02-03T10:27:44.807Z,100579.75
2023-02-03T10:32:50.257Z,100595.50
2023-02-03T10:37:58.423Z,100579.84
2023-02-03T10:43:19.957Z,100580.22
2023-02-03T10:48:23.515Z,100599.47
2023-02-03T10:53:28.068Z,100598.84
2023-02-03T10:58:34.054Z,100589.16
2023-02-03T11:03:36.886Z,100598.75
2023-02-03T11:08:41.450Z,100606.94
2023-02-03T11:13:45.289Z,100617.97
2023-02-03T11:18:54.135Z,100612.00
2023-02-03T11:24:03.033Z,100632.28
2023-02-03T11:29:08.355Z,100634.28
2023-02-03T11:34:19.570Z,100625.13
2023-02-03T11:39:27.133Z,100639.38
2023-02-03T11:44:33.531Z,100656.44
2023-02-03T11:50:11.506Z,100640.22
2023-02-03T11:55:26.814Z,100616.91
2023-02-03T12:00:40.038Z,100640.72
2023-02-03T12:06:01.640Z,100665.88
2023-02-03T12:11:12.670Z,100640.31
2023-02-03T12:16:31.767Z,100631.03
2023-02-03T12:21:44.229Z,100630.00
2023-02-03T12:26:53.123Z,100645.97
2023-02-03T12:32:06.469Z,100642.00
2023-02-03T12:37:15.227Z,100639.69
2023-02-03T12:42:22.168Z,100650.78
2023-02-03T12:47:33.092Z,100639.50
2023-02-03T12:52:40.440Z,100650.06
2023-02-03T12:57:49.171Z,100663.16
2023-02-03T13:03:07.988Z,100662.50
2023-02-03T13:08:17.748Z,100683.41
2023-02-03T13:13:30.089Z,100676.97
2023-02-03T13:18:38.062Z,100700.19
2023-02-03T13:23:44.631Z,100700.81
2023-02-03T13:29:04.028Z,100691.53
2023-02-03T13:34:53.665Z,100694.16
2023-02-03T13:40:17.939Z,100703.81
2023-02-03T13:45:30.641Z,100699.97
2023-02-03T13:50:36.458Z,100709.66
2023-02-03T13:55:43.036Z,100715.19
2023-02-03T14:01:31.684Z,100714.88
2023-02-03T14:07:13.322Z,100727.44
2023-02-03T14:12:34.099Z,100733.19
2023-02-03T14:18:06.982Z,100732.44
2023-02-03T14:23:17.603Z,100726.72
2023-02-03T14:28:41.927Z,100728.44
2023-02-03T14:33:55.306Z,100742.56
2023-02-03T14:39:03.395Z,100749.91
2023-02-03T14:44:18.749Z,100757.38
2023-02-03T14:49:36.941Z,100776.44
2023-02-03T14:54:56.829Z,100779.75
2023-02-03T15:00:05.912Z,100801.63
2023-02-03T15:05:36.881Z,100798.78
2023-02-03T15:10:44.882Z,100800.41
2023-02-03T15:15:56.146Z,100809.13
2023-02-03T15:21:03.276Z,100822.50
2023-02-03T15:26:20.644Z,100820.56
2023-02-03T15:31:32.260Z,100840.66
2023-02-03T15:36:43.963Z,100832.19
2023-02-03T15:41:50.776Z,100842.38
2023-02-03T15:47:01.825Z,100839.44
2023-02-03T15:52:15.025Z,100846.69
2023-02-03T15:57:23.250Z,100858.56
2023-02-03T16:02:35.021Z,100860.59
2023-02-03T16:07:43.107Z,100872.50
2023-02-03T16:12:46.264Z,100881.72
2023-02-03T16:17:57.473Z,100878.06
2023-02-03T16:23:07.627Z,100883.50
2023-02-03T16:28:35.902Z,100884.63
2023-02-03T16:33:58.323Z,100887.88
2023-02-03T16:39:22.635Z,100900.53
2023-02-03T16:44:43.029Z,100892.75
2023-02-03T16:50:06.036Z,100896.66
2023-02-03T16:55:10.862Z,100931.03
2023-02-03T17:00:15.368Z,100915.81
2023-02-03T17:05:22.873Z,100929.38
2023-02-03T17:10:27.934Z,100958.25
2023-02-03T17:15:31.495Z,100960.31
2023-02-03T17:20:37.037Z,100969.66
2023-02-03T17:25:41.292Z,100981.25
2023-02-03T17:30:46.099Z,100983.31
2023-02-03T17:36:01.630Z,100976.94
2023-02-03T17:57:16.154Z,101031.69
2023-02-03T18:02:19.054Z,101043.97
2023-02-03T18:07:25.979Z,101064.63
2023-02-03T18:12:30.393Z,101085.16
2023-02-03T18:17:33.921Z,101114.59
2023-02-03T18:22:39.594Z,101099.34
2023-02-03T18:27:49.245Z,101117.66
2023-02-03T18:32:54.792Z,101147.41
2023-02-03T18:38:02.932Z,101159.84
2023-02-03T18:43:10.466Z,101182.59
2023-02-03T18:48:13.450Z,101231.63
2023-02-03T18:53:21.501Z,101215.59
2023-02-03T18:58:25.522Z,101257.56
2023-02-03T19:03:28.535Z,101278.69
2023-02-03T19:08:34.626Z,101270.22
2023-02-03T19:13:38.905Z,101311.88
2023-02-03T19:18:44.349Z,101358.81
2023-02-03T19:23:49.202Z,101345.78
2023-02-03T19:29:11.030Z,101384.19
2023-02-03T19:34:15.958Z,101381.53
2023-02-03T19:39:21.863Z,101405.84
2023-02-03T19:44:24.433Z,101421.03
2023-02-03T19:49:28.605Z,101438.59
2023-02-03T19:54:33.145Z,101472.84
2023-02-03T19:59:35.891Z,101476.59
2023-02-03T20:04:55.024Z,101498.69
2023-02-03T20:10:19.823Z,101522.81
2023-02-03T20:15:31.631Z,101553.06
2023-02-03T20:26:14.025Z,101583.69
2023-02-03T20:31:24.627Z,101603.47
2023-02-03T20:36:33.331Z,101623.25
2023-02-03T20:41:43.155Z,101651.69
2023-02-03T20:47:00.729Z,101660.09
2023-02-03T21:08:39.638Z,101743.03
2023-02-03T21:14:13.282Z,101758.78
2023-02-03T21:19:35.119Z,101804.72
2023-02-03T21:36:08.029Z,101856.91
2023-02-03T21:52:32.782Z,101901.28
2023-02-03T21:57:50.900Z,101915.53
2023-02-03T22:08:25.754Z,101954.56
2023-02-03T22:13:45.434Z,101977.69
2023-02-03T22:18:50.886Z,101987.31
2023-02-03T22:24:06.352Z,102009.22
2023-02-03T22:29:11.196Z,102019.31
2023-02-03T22:34:41.648Z,102047.16
2023-02-03T22:40:04.726Z,102071.50
2023-02-03T22:45:13.161Z,102086.19
2023-02-03T22:50:35.021Z,102123.38
2023-02-03T23:01:04.306Z,102161.16
2023-02-03T23:11:30.164Z,102191.00
2023-02-03T23:22:16.732Z,102227.88
2023-02-03T23:27:19.933Z,102245.13
2023-02-03T23:32:30.223Z,102265.47
2023-02-03T23:37:35.270Z,102276.31
2023-02-03T23:42:38.494Z,102310.91
2023-02-03T23:48:17.363Z,102300.94
2023-02-03T23:53:19.845Z,102331.66
2023-02-03T23:58:22.312Z,102348.75
